sensor_id;sensor_type;location;lat;lon;timestamp;pressure;altitude;pressure_sealevel;temperature;humidity
58955;BME280;45815;52.334;5.024;2023-09-19T00:01:32;100628.59;;;16.22;100.00
58955;BME280;45815;52.334;5.024;2023-09-19T00:03:58;100640.09;;;16.19;100.00
58955;BME280;45815;52.334;5.024;2023-09-19T00:06:24;100636.56;;;16.20;100.00
58955;BME280;45815;52.334;5.024;2023-09-19T00:08:54;100636.56;;;16.17;100.00
58955;BME280;45815;52.334;5.024;2023-09-19T00:11:20;100638.38;;;16.12;100.00
58955;BME280;45815;52.334;5.024;2023-09-19T00:13:47;100659.56;;;16.12;100.00
58955;BME280;45815;52.334;5.024;2023-09-19T00:16:15;100659.56;;;16.12;100.00
58955;BME280;45815;52.334;5.024;2023-09-19T00:18:40;100655.16;;;16.10;100.00
58955;BME280;45815;52.334;5.024;2023-09-19T00:21:06;100661.34;;;16.10;100.00
58955;BME280;45815;52.334;5.024;2023-09-19T00:23:32;100662.25;;;16.09;100.00
58955;BME280;45815;52.334;5.024;2023-09-19T00:25:59;100655.16;;;16.10;100.00
58955;BME280;45815;52.334;5.024;2023-09-19T00:28:24;100661.38;;;16.06;100.00
58955;BME280;45815;52.334;5.024;2023-09-19T00:30:50;100661.38;;;16.06;100.00
58955;BME280;45815;52.334;5.024;2023-09-19T00:33:15;100650.84;;;15.98;100.00
58955;BME280;45815;52.334;5.024;2023-09-19T00:35:52;100663.13;;;16.05;100.00
58955;BME280;45815;52.334;5.024;2023-09-19T00:38:21;100662.25;;;16.08;100.00
58955;BME280;45815;52.334;5.024;2023-09-19T00:40:49;100665.84;;;15.94;100.00
58955;BME280;45815;52.334;5.024;2023-09-19T00:43:16;100666.69;;;16.04;100.00
58955;BME280;45815;52.334;5.024;2023-09-19T00:45:43;100664.03;;;16.04;100.00
58955;BME280;45815;52.334;5.024;2023-09-19T00:48:10;100670.22;;;16.04;100.00
58955;BME280;45815;52.334;5.024;2023-09-19T00:50:38;100664.03;;;16.02;100.00
58955;BME280;45815;52.334;5.024;2023-09-19T00:53:07;100669.34;;;16.04;100.00
58955;BME280;45815;52.334;5.024;2023-09-19T00:55:36;100663.19;;;15.96;100.00
58955;BME280;45815;52.334;5.024;2023-09-19T00:58:03;100672.84;;;16.03;100.00
58955;BME280;45815;52.334;5.024;2023-09-19T01:00:28;100677.28;;;16.04;100.00
58955;BME280;45815;52.334;5.024;2023-09-19T01:02:54;100663.19;;;15.96;100.00
58955;BME280;45815;52.334;5.024;2023-09-19T01:05:20;100673.72;;;16.05;100.00
58955;BME280;45815;52.334;5.024;2023-09-19T01:07:46;100674.63;;;16.04;100.00
58955;BME280;45815;52.334;5.024;2023-09-19T01:10:16;100672.84;;;16.04;100.00
58955;BME280;45815;52.334;5.024;2023-09-19T01:12:51;100677.28;;;16.04;100.00
58955;BME280;45815;52.334;5.024;2023-09-19T01:20:39;100685.28;;;15.93;100.00
58955;BME280;45815;52.334;5.024;2023-09-19T01:31:39;100680.94;;;15.75;100.00
58955;BME280;45815;52.334;5.024;2023-09-19T01:34:08;100678.31;;;15.72;100.00
58955;BME280;45815;52.334;5.024;2023-09-19T01:36:37;100695.06;;;15.68;100.00
58955;BME280;45815;52.334;5.024;2023-09-19T01:39:07;100697.69;;;15.68;100.00
58955;BME280;45815;52.334;5.024;2023-09-19T01:47:33;100703.03;;;15.62;100.00
58955;BME280;45815;52.334;5.024;2023-09-19T01:50:17;100701.25;;;15.66;100.00
58955;BME280;45815;52.334;5.024;2023-09-19T01:52:56;100689.81;;;15.59;100.00
58955;BME280;45815;52.334;5.024;2023-09-19T01:55:25;100690.69;;;15.64;100.00
58955;BME280;45815;52.334;5.024;2023-09-19T01:58:02;100688.03;;;15.67;100.00
58955;BME280;45815;52.334;5.024;2023-09-19T02:00:32;100684.47;;;15.68;100.00
58955;BME280;45815;52.334;5.024;2023-09-19T02:02:59;100679.19;;;15.65;100.00
58955;BME280;45815;52.334;5.024;2023-09-19T02:05:26;100676.59;;;15.62;100.00
58955;BME280;45815;52.334;5.024;2023-09-19T02:07:53;100684.50;;;15.63;100.00
58955;BME280;45815;52.334;5.024;2023-09-19T02:10:19;100694.22;;;15.65;100.00
58955;BME280;45815;52.334;5.024;2023-09-19T02:12:44;100702.16;;;15.65;100.00
58955;BME280;45815;52.334;5.024;2023-09-19T02:15:13;100696.84;;;15.65;100.00
58955;BME280;45815;52.334;5.024;2023-09-19T02:17:41;100698.59;;;15.67;100.00
58955;BME280;45815;52.334;5.024;2023-09-19T02:20:08;100697.72;;;15.67;100.00
58955;BME280;45815;52.334;5.024;2023-09-19T02:22:35;100699.47;;;15.66;100.00
58955;BME280;45815;52.334;5.024;2023-09-19T02:25:01;100703.91;;;15.67;100.00
58955;BME280;45815;52.334;5.024;2023-09-19T02:27:27;100698.59;;;15.67;100.00
58955;BME280;45815;52.334;5.024;2023-09-19T02:29:52;100703.91;;;15.67;100.00
58955;BME280;45815;52.334;5.024;2023-09-19T02:32:18;100704.78;;;15.63;100.00
58955;BME280;45815;52.334;5.024;2023-09-19T02:34:43;100711.84;;;15.67;100.00
58955;BME280;45815;52.334;5.024;2023-09-19T02:37:10;100707.41;;;15.66;100.00
58955;BME280;45815;52.334;5.024;2023-09-19T02:39:35;100722.41;;;15.66;100.00
58955;BME280;45815;52.334;5.024;2023-09-19T02:42:01;100720.66;;;15.65;100.00
58955;BME280;45815;52.334;5.024;2023-09-19T02:44:29;100719.78;;;15.64;100.00
58955;BME280;45815;52.334;5.024;2023-09-19T02:46:55;100720.66;;;15.65;100.00
58955;BME280;45815;52.334;5.024;2023-09-19T02:49:22;100731.25;;;15.63;100.00
58955;BME280;45815;52.334;5.024;2023-09-19T02:51:48;100722.44;;;15.64;100.00
58955;BME280;45815;52.334;5.024;2023-09-19T02:54:13;100711.84;;;15.64;100.00
58955;BME280;45815;52.334;5.024;2023-09-19T02:56:38;100712.75;;;15.60;100.00
58955;BME280;45815;52.334;5.024;2023-09-19T02:59:04;100710.97;;;15.62;100.00
58955;BME280;45815;52.334;5.024;2023-09-19T03:01:30;100710.97;;;15.60;100.00
58955;BME280;45815;52.334;5.024;2023-09-19T03:03:56;100712.75;;;15.60;100.00
58955;BME280;45815;52.334;5.024;2023-09-19T03:06:22;100696.88;;;15.60;100.00
58955;BME280;45815;52.334;5.024;2023-09-19T03:08:49;100705.66;;;15.59;100.00
58955;BME280;45815;52.334;5.024;2023-09-19T03:11:17;100710.97;;;15.60;100.00
58955;BME280;45815;52.334;5.024;2023-09-19T03:13:52;100710.13;;;15.57;100.00
58955;BME280;45815;52.334;5.024;2023-09-19T03:16:17;100699.53;;;15.57;100.00
58955;BME280;45815;52.334;5.024;2023-09-19T03:18:44;100700.41;;;15.54;100.00
58955;BME280;45815;52.334;5.024;2023-09-19T03:21:10;100698.66;;;15.52;100.00
58955;BME280;45815;52.334;5.024;2023-09-19T03:23:36;100698.66;;;15.50;100.00
58955;BME280;45815;52.334;5.024;2023-09-19T03:26:01;100695.13;;;15.50;100.00
58955;BME280;45815;52.334;5.024;2023-09-19T03:28:27;100703.06;;;15.53;100.00
58955;BME280;45815;52.334;5.024;2023-09-19T03:31:04;100689.84;;;15.48;100.00
58955;BME280;45815;52.334;5.024;2023-09-19T03:33:32;100682.78;;;15.52;100.00
58955;BME280;45815;52.334;5.024;2023-09-19T03:35:59;100698.66;;;15.53;100.00
58955;BME280;45815;52.334;5.024;2023-09-19T03:38:26;100694.25;;;15.51;100.00
58955;BME280;45815;52.334;5.024;2023-09-19T03:40:52;100696.00;;;15.53;100.00
58955;BME280;45815;52.334;5.024;2023-09-19T03:43:17;100702.19;;;15.55;100.00
58955;BME280;45815;52.334;5.024;2023-09-19T03:45:43;100703.03;;;15.59;100.00
58955;BME280;45815;52.334;5.024;2023-09-19T03:48:10;100705.69;;;15.57;100.00
58955;BME280;45815;52.334;5.024;2023-09-19T03:50:36;100710.09;;;15.58;100.00
58955;BME280;45815;52.334;5.024;2023-09-19T03:53:01;100710.97;;;15.56;100.00
58955;BME280;45815;52.334;5.024;2023-09-19T03:55:27;100708.34;;;15.56;100.00
58955;BME280;45815;52.334;5.024;2023-09-19T03:57:53;100711.88;;;15.53;100.00
58955;BME280;45815;52.334;5.024;2023-09-19T04:00:19;100723.34;;;15.54;100.00
58955;BME280;45815;52.334;5.024;2023-09-19T04:02:51;100724.22;;;15.53;100.00
58955;BME280;45815;52.334;5.024;2023-09-19T04:05:18;100725.09;;;15.52;100.00
58955;BME280;45815;52.334;5.024;2023-09-19T04:07:45;100735.69;;;15.52;100.00
58955;BME280;45815;52.334;5.024;2023-09-19T04:10:10;100735.69;;;15.53;100.00
58955;BME280;45815;52.334;5.024;2023-09-19T04:12:40;100740.97;;;15.52;100.00
58955;BME280;45815;52.334;5.024;2023-09-19T04:15:06;100732.16;;;15.50;100.00
58955;BME280;45815;52.334;5.024;2023-09-19T04:17:32;100737.47;;;15.47;100.00
58955;BME280;45815;52.334;5.024;2023-09-19T04:19:59;100728.66;;;15.41;100.00
58955;BME280;45815;52.334;5.024;2023-09-19T04:22:24;100738.38;;;15.46;100.00
58955;BME280;45815;52.334;5.024;2023-09-19T04:24:50;100751.56;;;15.50;100.00
58955;BME280;45815;52.334;5.024;2023-09-19T04:27:15;100750.69;;;15.51;100.00
58955;BME280;45815;52.334;5.024;2023-09-19T04:29:41;100761.25;;;15.54;100.00
58955;BME280;45815;52.334;5.024;2023-09-19T04:32:07;100757.72;;;15.58;100.00
58955;BME280;45815;52.334;5.024;2023-09-19T04:34:33;100751.53;;;15.58;100.00
58955;BME280;45815;52.334;5.024;2023-09-19T04:37:00;100758.63;;;15.57;100.00
58955;BME280;45815;52.334;5.024;2023-09-19T04:39:26;100756.84;;;15.64;100.00
58955;BME280;45815;52.334;5.024;2023-09-19T04:41:52;100742.72;;;15.62;100.00
58955;BME280;45815;52.334;5.024;2023-09-19T04:44:18;100760.34;;;15.69;100.00
58955;BME280;45815;52.334;5.024;2023-09-19T04:46:44;100761.25;;;15.71;100.00
58955;BME280;45815;52.334;5.024;2023-09-19T04:49:11;100765.63;;;15.69;100.00
58955;BME280;45815;52.334;5.024;2023-09-19T04:51:37;100763.00;;;15.74;100.00
58955;BME280;45815;52.334;5.024;2023-09-19T04:54:03;100766.53;;;15.76;100.00
58955;BME280;45815;52.334;5.024;2023-09-19T04:56:28;100773.56;;;15.75;100.00
58955;BME280;45815;52.334;5.024;2023-09-19T04:58:54;100785.03;;;15.68;100.00
58955;BME280;45815;52.334;5.024;2023-09-19T05:01:20;100779.75;;;15.65;100.00
58955;BME280;45815;52.334;5.024;2023-09-19T05:03:48;100781.50;;;15.66;100.00
58955;BME280;45815;52.334;5.024;2023-09-19T05:06:20;100778.88;;;15.63;100.00
58955;BME280;45815;52.334;5.024;2023-09-19T05:08:47;100786.81;;;15.63;100.00
58955;BME280;45815;52.334;5.024;2023-09-19T05:11:20;100785.06;;;15.62;100.00
58955;BME280;45815;52.334;5.024;2023-09-19T05:13:47;100774.47;;;15.59;100.00
58955;BME280;45815;52.334;5.024;2023-09-19T05:16:12;100763.03;;;15.51;100.00
58955;BME280;45815;52.334;5.024;2023-09-19T05:18:38;100780.66;;;15.64;100.00
58955;BME280;45815;52.334;5.024;2023-09-19T05:21:03;100774.44;;;15.68;100.00
58955;BME280;45815;52.334;5.024;2023-09-19T05:23:29;100772.69;;;15.70;100.00
58955;BME280;45815;52.334;5.024;2023-09-19T05:25:54;100771.81;;;15.67;100.00
58955;BME280;45815;52.334;5.024;2023-09-19T05:28:22;100778.00;;;15.62;100.00
58955;BME280;45815;52.334;5.024;2023-09-19T05:30:47;100785.06;;;15.56;100.00
58955;BME280;45815;52.334;5.024;2023-09-19T05:33:14;100772.72;;;15.49;100.00
58955;BME280;45815;52.334;5.024;2023-09-19T05:35:39;100774.47;;;15.50;100.00
58955;BME280;45815;52.334;5.024;2023-09-19T05:38:07;100781.53;;;15.49;100.00
58955;BME280;45815;52.334;5.024;2023-09-19T05:40:34;100774.50;;;15.47;100.00
58955;BME280;45815;52.334;5.024;2023-09-19T05:43:00;100762.16;;;15.49;100.00
58955;BME280;45815;52.334;5.024;2023-09-19T05:45:26;100786.84;;;15.57;100.00
58955;BME280;45815;52.334;5.024;2023-09-19T05:47:52;100785.94;;;15.59;100.00
58955;BME280;45815;52.334;5.024;2023-09-19T05:50:21;100770.94;;;15.54;100.00
58955;BME280;45815;52.334;5.024;2023-09-19T05:52:54;100785.06;;;15.54;100.00
58955;BME280;45815;52.334;5.024;2023-09-19T05:55:21;100781.53;;;15.49;100.00
58955;BME280;45815;52.334;5.024;2023-09-19T05:57:50;100786.84;;;15.48;100.00
58955;BME280;45815;52.334;5.024;2023-09-19T06:00:20;100788.63;;;15.46;100.00
58955;BME280;45815;52.334;5.024;2023-09-19T06:02:55;100792.16;;;15.41;100.00
58955;BME280;45815;52.334;5.024;2023-09-19T06:05:21;100796.56;;;15.46;100.00
58955;BME280;45815;52.334;5.024;2023-09-19T06:07:46;100799.19;;;15.39;100.00
58955;BME280;45815;52.334;5.024;2023-09-19T06:10:12;100795.69;;;15.39;100.00
58955;BME280;45815;52.334;5.024;2023-09-19T06:12:40;100805.38;;;15.38;100.00
58955;BME280;45815;52.334;5.024;2023-09-19T06:15:06;100804.50;;;15.39;100.00
58955;BME280;45815;52.334;5.024;2023-09-19T06:17:34;100793.03;;;15.40;100.00
58955;BME280;45815;52.334;5.024;2023-09-19T06:20:05;100782.47;;;15.40;100.00
58955;BME280;45815;52.334;5.024;2023-09-19T06:22:38;100769.22;;;15.37;100.00
58955;BME280;45815;52.334;5.024;2023-09-19T06:25:04;100793.03;;;15.48;100.00
58955;BME280;45815;52.334;5.024;2023-09-19T06:27:29;100790.34;;;15.50;100.00
58955;BME280;45815;52.334;5.024;2023-09-19T06:29:54;100785.94;;;15.58;100.00
58955;BME280;45815;52.334;5.024;2023-09-19T06:32:27;100773.63;;;15.52;100.00
58955;BME280;45815;52.334;5.024;2023-09-19T06:34:52;100799.16;;;15.67;100.00
58955;BME280;45815;52.334;5.024;2023-09-19T06:37:19;100794.75;;;15.71;100.00
58955;BME280;45815;52.334;5.024;2023-09-19T06:39:46;100797.41;;;15.72;100.00
58955;BME280;45815;52.334;5.024;2023-09-19T06:42:15;100800.06;;;15.74;100.00
58955;BME280;45815;52.334;5.024;2023-09-19T06:44:43;100797.41;;;15.72;100.00
58955;BME280;45815;52.334;5.024;2023-09-19T06:47:08;100807.06;;;15.78;100.00
58955;BME280;45815;52.334;5.024;2023-09-19T06:49:35;100807.97;;;15.75;100.00
58955;BME280;45815;52.334;5.024;2023-09-19T06:52:00;100797.34;;;15.85;100.00
58955;BME280;45815;52.334;5.024;2023-09-19T06:54:26;100800.00;;;15.85;100.00
58955;BME280;45815;52.334;5.024;2023-09-19T06:56:56;100787.66;;;15.82;100.00
58955;BME280;45815;52.334;5.024;2023-09-19T06:59:24;100797.34;;;15.91;100.00
58955;BME280;45815;52.334;5.024;2023-09-19T07:01:49;100800.00;;;15.88;100.00
58955;BME280;45815;52.334;5.024;2023-09-19T07:04:16;100810.59;;;15.88;100.00
58955;BME280;45815;52.334;5.024;2023-09-19T07:06:42;100804.38;;;15.92;100.00
58955;BME280;45815;52.334;5.024;2023-09-19T07:09:08;100809.69;;;15.89;100.00
58955;BME280;45815;52.334;5.024;2023-09-19T07:11:34;100814.13;;;15.88;100.00
58955;BME280;45815;52.334;5.024;2023-09-19T07:13:59;100820.28;;;15.92;100.00
58955;BME280;45815;52.334;5.024;2023-09-19T07:16:25;100833.50;;;15.93;100.00
58955;BME280;45815;52.334;5.024;2023-09-19T07:18:55;100826.44;;;15.95;100.00
58955;BME280;45815;52.334;5.024;2023-09-19T07:21:22;100816.72;;;15.96;100.00
58955;BME280;45815;52.334;5.024;2023-09-19T07:23:48;100819.41;;;15.90;100.00
58955;BME280;45815;52.334;5.024;2023-09-19T07:26:15;100818.50;;;15.97;100.00
58955;BME280;45815;52.334;5.024;2023-09-19T07:28:40;100831.72;;;16.06;100.00
58955;BME280;45815;52.334;5.024;2023-09-19T07:31:06;100829.91;;;16.13;100.00
58955;BME280;45815;52.334;5.024;2023-09-19T07:33:36;100838.72;;;16.16;100.00
58955;BME280;45815;52.334;5.024;2023-09-19T07:36:02;100833.41;;;16.19;100.00
58955;BME280;45815;52.334;5.024;2023-09-19T07:38:27;100840.47;;;16.19;100.00
58955;BME280;45815;52.334;5.024;2023-09-19T07:40:53;100838.72;;;16.21;100.00
58955;BME280;45815;52.334;5.024;2023-09-19T07:43:18;100835.16;;;16.28;100.00
58955;BME280;45815;52.334;5.024;2023-09-19T07:45:43;100849.25;;;16.27;100.00
58955;BME280;45815;52.334;5.024;2023-09-19T07:48:09;100843.09;;;16.30;100.00
58955;BME280;45815;52.334;5.024;2023-09-19T07:50:40;100840.41;;;16.36;100.00
58955;BME280;45815;52.334;5.024;2023-09-19T07:53:08;100824.50;;;16.37;100.00
58955;BME280;45815;52.334;5.024;2023-09-19T07:55:34;100830.59;;;16.50;100.00
58955;BME280;45815;52.334;5.024;2023-09-19T07:57:59;100843.84;;;16.55;100.00
58955;BME280;45815;52.334;5.024;2023-09-19T08:00:25;100835.88;;;16.62;100.00
58955;BME280;45815;52.334;5.024;2023-09-19T08:02:51;100842.88;;;16.68;100.00
58955;BME280;45815;52.334;5.024;2023-09-19T08:05:17;100821.69;;;16.70;100.00
58955;BME280;45815;52.334;5.024;2023-09-19T08:07:46;100828.69;;;16.80;100.00
58955;BME280;45815;52.334;5.024;2023-09-19T08:10:15;100822.50;;;16.78;100.00
58955;BME280;45815;52.334;5.024;2023-09-19T08:12:42;100813.63;;;16.85;100.00
58955;BME280;45815;52.334;5.024;2023-09-19T08:15:18;100826.91;;;16.88;100.00
58955;BME280;45815;52.334;5.024;2023-09-19T08:17:45;100812.78;;;16.80;100.00
58955;BME280;45815;52.334;5.024;2023-09-19T08:20:11;100802.16;;;16.83;100.00
58955;BME280;45815;52.334;5.024;2023-09-19T08:22:53;100812.72;;;16.87;100.00
58955;BME280;45815;52.334;5.024;2023-09-19T08:25:20;100805.59;;;17.00;100.00
58955;BME280;45815;52.334;5.024;2023-09-19T08:27:47;100808.19;;;17.05;100.00
58955;BME280;45815;52.334;5.024;2023-09-19T08:30:20;100816.13;;;17.09;100.00
58955;BME280;45815;52.334;5.024;2023-09-19T08:32:50;100806.34;;;17.13;100.00
58955;BME280;45815;52.334;5.024;2023-09-19T08:35:15;100800.09;;;17.20;100.00
58955;BME280;45815;52.334;5.024;2023-09-19T08:37:44;100798.28;;;17.27;100.00
58955;BME280;45815;52.334;5.024;2023-09-19T08:40:11;100800.00;;;17.31;100.00
58955;BME280;45815;52.334;5.024;2023-09-19T08:42:51;100803.44;;;17.39;100.00
58955;BME280;45815;52.334;5.024;2023-09-19T08:45:19;100821.97;;;17.47;100.00
58955;BME280;45815;52.334;5.024;2023-09-19T08:48:00;100809.59;;;17.46;100.00
58955;BME280;45815;52.334;5.024;2023-09-19T08:50:30;100810.41;;;17.54;100.00
58955;BME280;45815;52.334;5.024;2023-09-19T08:53:02;100810.34;;;17.59;100.00
58955;BME280;45815;52.334;5.024;2023-09-19T08:55:31;100809.44;;;17.61;100.00
58955;BME280;45815;52.334;5.024;2023-09-19T08:58:04;100817.34;;;17.66;100.00
58955;BME280;45815;52.334;5.024;2023-09-19T09:00:32;100801.38;;;17.70;100.00
58955;BME280;45815;52.334;5.024;2023-09-19T09:03:00;100811.91;;;17.78;100.00
58955;BME280;45815;52.334;5.024;2023-09-19T09:05:28;100811.88;;;17.84;100.00
58955;BME280;45815;52.334;5.024;2023-09-19T09:07:54;100806.47;;;17.90;100.00
58955;BME280;45815;52.334;5.024;2023-09-19T09:10:22;100809.25;;;17.80;100.00
58955;BME280;45815;52.334;5.024;2023-09-19T09:12:54;100799.28;;;18.02;100.00
58955;BME280;45815;52.334;5.024;2023-09-19T09:15:23;100792.22;;;18.01;100.00
58955;BME280;45815;52.334;5.024;2023-09-19T09:17:49;100798.41;;;18.03;100.00
58955;BME280;45815;52.334;5.024;2023-09-19T09:20:16;100795.75;;;18.00;100.00
58955;BME280;45815;52.334;5.024;2023-09-19T09:22:55;100794.06;;;17.92;100.00
58955;BME280;45815;52.334;5.024;2023-09-19T09:25:52;100804.75;;;17.88;100.00
58955;BME280;45815;52.334;5.024;2023-09-19T09:28:23;100793.16;;;17.95;100.00
58955;BME280;45815;52.334;5.024;2023-09-19T09:30:49;100805.47;;;18.02;100.00
58955;BME280;45815;52.334;5.024;2023-09-19T09:33:15;100808.25;;;17.91;100.00
58955;BME280;45815;52.334;5.024;2023-09-19T09:38:23;100801.28;;;17.83;100.00
58955;BME280;45815;52.334;5.024;2023-09-19T09:40:59;100810.00;;;17.92;100.00
58955;BME280;45815;52.334;5.024;2023-09-19T09:43:35;100792.94;;;18.13;100.00
58955;BME280;45815;52.334;5.024;2023-09-19T09:48:56;100795.44;;;18.24;100.00
58955;BME280;45815;52.334;5.024;2023-09-19T09:51:51;100790.22;;;18.18;100.00
58955;BME280;45815;52.334;5.024;2023-09-19T09:54:29;100798.97;;;18.26;100.00
58955;BME280;45815;52.334;5.024;2023-09-19T09:57:08;100770.75;;;18.16;100.00
58955;BME280;45815;52.334;5.024;2023-09-19T09:59:53;100783.03;;;18.25;100.00
58955;BME280;45815;52.334;5.024;2023-09-19T10:02:31;100779.47;;;18.27;100.00
58955;BME280;45815;52.334;5.024;2023-09-19T10:05:15;100790.72;;;18.45;100.00
58955;BME280;45815;52.334;5.024;2023-09-19T10:07:54;100796.91;;;18.47;100.00
58955;BME280;45815;52.334;5.024;2023-09-19T10:10:35;100772.97;;;18.47;100.00
58955;BME280;45815;52.334;5.024;2023-09-19T10:13:10;100770.31;;;18.48;100.00
58955;BME280;45815;52.334;5.024;2023-09-19T10:15:44;100761.47;;;18.48;100.00
58955;BME280;45815;52.334;5.024;2023-09-19T10:18:20;100752.38;;;18.61;100.00
58955;BME280;45815;52.334;5.024;2023-09-19T10:20:45;100748.00;;;18.59;100.00
58955;BME280;45815;52.334;5.024;2023-09-19T10:23:12;100726.47;;;18.75;100.00
58955;BME280;45815;52.334;5.024;2023-09-19T10:25:42;100727.34;;;18.77;100.00
58955;BME280;45815;52.334;5.024;2023-09-19T10:28:12;100737.13;;;18.72;100.00
58955;BME280;45815;52.334;5.024;2023-09-19T10:30:44;100730.81;;;18.83;100.00
58955;BME280;45815;52.334;5.024;2023-09-19T10:33:13;100731.78;;;18.77;100.00
58955;BME280;45815;52.334;5.024;2023-09-19T10:35:45;100716.59;;;18.84;100.00
58955;BME280;45815;52.334;5.024;2023-09-19T10:38:12;100742.06;;;18.98;100.00
58955;BME280;45815;52.334;5.024;2023-09-19T10:40:39;100722.59;;;18.96;100.00
58955;BME280;45815;52.334;5.024;2023-09-19T10:43:22;100741.53;;;18.78;100.00
58955;BME280;45815;52.334;5.024;2023-09-19T10:45:50;100720.19;;;18.83;100.00
58955;BME280;45815;52.334;5.024;2023-09-19T10:48:18;100717.31;;;18.93;100.00
58955;BME280;45815;52.334;5.024;2023-09-19T10:51:01;100715.56;;;18.92;100.00
58955;BME280;45815;52.334;5.024;2023-09-19T10:53:40;100727.94;;;18.95;100.00
58955;BME280;45815;52.334;5.024;2023-09-19T10:56:08;100709.41;;;18.89;100.00
58955;BME280;45815;52.334;5.024;2023-09-19T10:58:42;100714.81;;;18.84;100.00
58955;BME280;45815;52.334;5.024;2023-09-19T11:01:10;100689.94;;;18.87;100.00
58955;BME280;45815;52.334;5.024;2023-09-19T11:03:40;100703.91;;;19.01;100.00
58955;BME280;45815;52.334;5.024;2023-09-19T11:06:11;100694.22;;;18.97;100.00
58955;BME280;45815;52.334;5.024;2023-09-19T11:25:46;100698.25;;;19.63;100.00
58955;BME280;45815;52.334;5.024;2023-09-19T11:30:51;100685.03;;;19.60;100.00
58955;BME280;45815;52.334;5.024;2023-09-19T11:33:24;100690.56;;;19.49;100.00
58955;BME280;45815;52.334;5.024;2023-09-19T11:36:08;100687.72;;;19.57;100.00
58955;BME280;45815;52.334;5.024;2023-09-19T11:46:26;100692.88;;;19.23;100.00
58955;BME280;45815;52.334;5.024;2023-09-19T11:48:52;100689.41;;;19.17;100.00
58955;BME280;45815;52.334;5.024;2023-09-19T11:51:21;100698.34;;;19.13;100.00
58955;BME280;45815;52.334;5.024;2023-09-19T11:53:52;100714.41;;;19.07;100.00
58955;BME280;45815;52.334;5.024;2023-09-19T11:56:20;100698.63;;;18.98;100.00
58955;BME280;45815;52.334;5.024;2023-09-19T11:58:46;100692.50;;;18.93;100.00
58955;BME280;45815;52.334;5.024;2023-09-19T12:01:16;100708.53;;;18.90;100.00
58955;BME280;45815;52.334;5.024;2023-09-19T12:03:47;100692.59;;;18.87;100.00
58955;BME280;45815;52.334;5.024;2023-09-19T12:06:15;100676.91;;;18.70;100.00
58955;BME280;45815;52.334;5.024;2023-09-19T12:08:42;100672.41;;;18.76;100.00
58955;BME280;45815;52.334;5.024;2023-09-19T12:11:16;100685.72;;;18.76;100.00
58955;BME280;45815;52.334;5.024;2023-09-19T12:13:45;100696.44;;;18.69;100.00
58955;BME280;45815;52.334;5.024;2023-09-19T12:16:20;100708.91;;;18.65;100.00
58955;BME280;45815;52.334;5.024;2023-09-19T12:18:48;100692.00;;;18.69;100.00
58955;BME280;45815;52.334;5.024;2023-09-19T12:21:31;100692.22;;;18.57;100.00
58955;BME280;45815;52.334;5.024;2023-09-19T12:24:11;100693.09;;;18.56;100.00
58955;BME280;45815;52.334;5.024;2023-09-19T12:26:45;100702.13;;;18.47;100.00
58955;BME280;45815;52.334;5.024;2023-09-19T12:29:16;100704.66;;;18.53;100.00
58955;BME280;45815;52.334;5.024;2023-09-19T12:31:57;100698.56;;;18.47;100.00
58955;BME280;45815;52.334;5.024;2023-09-19T12:34:32;100699.41;;;18.49;100.00
58955;BME280;45815;52.334;5.024;2023-09-19T12:37:08;100702.06;;;18.49;100.00
58955;BME280;45815;52.334;5.024;2023-09-19T12:39:42;100702.88;;;18.54;100.00
58955;BME280;45815;52.334;5.024;2023-09-19T12:42:11;100691.28;;;18.60;100.00
58955;BME280;45815;52.334;5.024;2023-09-19T12:44:44;100685.03;;;18.62;100.00
58955;BME280;45815;52.334;5.024;2023-09-19T12:47:10;100684.97;;;18.65;100.00
58955;BME280;45815;52.334;5.024;2023-09-19T12:49:36;100682.13;;;18.77;100.00
58955;BME280;45815;52.334;5.024;2023-09-19T12:52:02;100676.78;;;18.81;100.00
58955;BME280;45815;52.334;5.024;2023-09-19T12:54:39;100684.31;;;19.05;100.00
58955;BME280;45815;52.334;5.024;2023-09-19T12:57:05;100684.03;;;19.21;100.00
58955;BME280;45815;52.334;5.024;2023-09-19T12:59:30;100686.56;;;19.27;100.00
58955;BME280;45815;52.334;5.024;2023-09-19T13:02:04;100683.88;;;19.27;100.00
58955;BME280;45815;52.334;5.024;2023-09-19T13:04:32;100689.09;;;19.33;100.00
58955;BME280;45815;52.334;5.024;2023-09-19T13:07:00;100674.06;;;19.32;100.00
58955;BME280;45815;52.334;5.024;2023-09-19T13:09:27;100677.44;;;19.38;100.00
58955;BME280;45815;52.334;5.024;2023-09-19T13:12:04;100667.81;;;19.33;100.00
58955;BME280;45815;52.334;5.024;2023-09-19T13:14:30;100674.06;;;19.32;100.00
58955;BME280;45815;52.334;5.024;2023-09-19T13:17:09;100670.47;;;19.33;100.00
58955;BME280;45815;52.334;5.024;2023-09-19T13:19:43;100675.88;;;19.30;100.00
58955;BME280;45815;52.334;5.024;2023-09-19T13:22:45;100667.19;;;19.20;100.00
58955;BME280;45815;52.334;5.024;2023-09-19T13:25:18;100676.94;;;19.19;100.00
58955;BME280;45815;52.334;5.024;2023-09-19T13:27:48;100686.72;;;19.19;100.00
58955;BME280;45815;52.334;5.024;2023-09-19T13:30:16;100682.22;;;19.23;100.00
58955;BME280;45815;52.334;5.024;2023-09-19T13:32:42;100692.94;;;19.18;100.00
58955;BME280;45815;52.334;5.024;2023-09-19T13:35:09;100674.34;;;19.15;100.00
58955;BME280;45815;52.334;5.024;2023-09-19T13:37:35;100693.88;;;19.15;100.00
58955;BME280;45815;52.334;5.024;2023-09-19T13:40:05;100694.78;;;19.14;100.00
58955;BME280;45815;52.334;5.024;2023-09-19T13:42:30;100697.66;;;19.04;100.00